sensor_id;sensor_type;location;lat;lon;timestamp;pressure;altitude;pressure_sealevel;temperature;humidity
48790;BME280;41718;51.980;5.734;2023-07-22T00:04:33;101119.53;;;13.02;100.00
48790;BME280;41718;51.980;5.734;2023-07-22T00:09:35;101117.75;;;12.97;100.00
48790;BME280;41718;51.980;5.734;2023-07-22T00:14:41;101110.81;;;12.93;100.00
48790;BME280;41718;51.980;5.734;2023-07-22T00:19:42;101107.25;;;12.85;100.00
48790;BME280;41718;51.980;5.734;2023-07-22T00:24:44;101106.28;;;12.74;100.00
48790;BME280;41718;51.980;5.734;2023-07-22T00:29:45;101111.53;;;12.77;100.00
48790;BME280;41718;51.980;5.734;2023-07-22T00:34:47;101108.75;;;12.60;100.00
48790;BME280;41718;51.980;5.734;2023-07-22T00:39:48;101106.09;;;12.59;100.00
48790;BME280;41718;51.980;5.734;2023-07-22T00:44:50;101096.63;;;12.59;100.00
48790;BME280;41718;51.980;5.734;2023-07-22T00:49:51;101104.38;;;12.56;100.00
48790;BME280;41718;51.980;5.734;2023-07-22T00:54:53;101098.25;;;12.50;100.00
48790;BME280;41718;51.980;5.734;2023-07-22T00:59:56;101102.56;;;12.49;100.00
48790;BME280;41718;51.980;5.734;2023-07-22T01:04:57;101095.72;;;12.57;100.00
48790;BME280;41718;51.980;5.734;2023-07-22T01:09:59;101100.03;;;12.54;100.00
48790;BME280;41718;51.980;5.734;2023-07-22T01:15:01;101091.44;;;12.62;100.00
48790;BME280;41718;51.980;5.734;2023-07-22T01:20:06;101088.84;;;12.61;100.00
48790;BME280;41718;51.980;5.734;2023-07-22T01:25:08;101082.81;;;12.63;100.00
48790;BME280;41718;51.980;5.734;2023-07-22T01:30:10;101074.25;;;12.72;100.00
48790;BME280;41718;51.980;5.734;2023-07-22T01:35:11;101078.53;;;12.70;100.00
48790;BME280;41718;51.980;5.734;2023-07-22T01:40:13;101087.22;;;12.72;100.00
48790;BME280;41718;51.980;5.734;2023-07-22T01:45:15;101079.38;;;12.67;100.00
48790;BME280;41718;51.980;5.734;2023-07-22T01:50:16;101075.94;;;12.68;100.00
48790;BME280;41718;51.980;5.734;2023-07-22T01:55:19;101077.63;;;12.63;100.00
48790;BME280;41718;51.980;5.734;2023-07-22T02:00:21;101079.16;;;12.46;100.00
48790;BME280;41718;51.980;5.734;2023-07-22T02:05:22;101074.91;;;12.53;100.00
48790;BME280;41718;51.980;5.734;2023-07-22T02:10:24;101068.66;;;12.34;100.00
48790;BME280;41718;51.980;5.734;2023-07-22T02:15:26;101061.69;;;12.30;100.00
48790;BME280;41718;51.980;5.734;2023-07-22T02:20:27;101052.03;;;12.15;100.00
48790;BME280;41718;51.980;5.734;2023-07-22T02:25:30;101047.69;;;12.14;100.00
48790;BME280;41718;51.980;5.734;2023-07-22T02:30:36;101050.09;;;12.02;100.00
48790;BME280;41718;51.980;5.734;2023-07-22T02:35:38;101046.69;;;12.04;100.00
48790;BME280;41718;51.980;5.734;2023-07-22T02:40:39;101044.09;;;12.03;100.00
48790;BME280;41718;51.980;5.734;2023-07-22T02:45:41;101045.72;;;11.96;100.00
48790;BME280;41718;51.980;5.734;2023-07-22T02:50:43;101042.19;;;11.88;100.00
48790;BME280;41718;51.980;5.734;2023-07-22T02:55:44;101037.78;;;11.82;100.00
48790;BME280;41718;51.980;5.734;2023-07-22T03:00:47;101042.13;;;11.83;100.00
48790;BME280;41718;51.980;5.734;2023-07-22T03:05:49;101039.47;;;11.80;100.00
48790;BME280;41718;51.980;5.734;2023-07-22T03:10:50;101048.16;;;11.84;100.00
48790;BME280;41718;51.980;5.734;2023-07-22T03:15:52;101049.69;;;11.70;100.00
48790;BME280;41718;51.980;5.734;2023-07-22T03:20:53;101047.97;;;11.72;100.00
48790;BME280;41718;51.980;5.734;2023-07-22T03:25:55;101046.16;;;11.63;100.00
48790;BME280;41718;51.980;5.734;2023-07-22T03:30:56;101054.66;;;11.56;100.00
48790;BME280;41718;51.980;5.734;2023-07-22T03:35:58;101053.78;;;11.54;100.00
48790;BME280;41718;51.980;5.734;2023-07-22T03:40:59;101050.44;;;11.62;100.00
48790;BME280;41718;51.980;5.734;2023-07-22T03:46:01;101045.22;;;11.58;100.00
48790;BME280;41718;51.980;5.734;2023-07-22T03:51:03;101054.75;;;11.62;100.00
48790;BME280;41718;51.980;5.734;2023-07-22T03:56:20;101053.94;;;11.64;100.00
48790;BME280;41718;51.980;5.734;2023-07-22T04:01:22;101053.00;;;11.61;100.00
48790;BME280;41718;51.980;5.734;2023-07-22T04:06:23;101049.47;;;11.54;100.00
48790;BME280;41718;51.980;5.734;2023-07-22T04:11:26;101051.28;;;11.60;100.00
48790;BME280;41718;51.980;5.734;2023-07-22T04:16:28;101049.53;;;11.59;100.00
48790;BME280;41718;51.980;5.734;2023-07-22T04:21:31;101041.00;;;11.66;100.00
48790;BME280;41718;51.980;5.734;2023-07-22T04:26:33;101042.81;;;11.73;100.00
48790;BME280;41718;51.980;5.734;2023-07-22T04:31:34;101042.19;;;11.88;100.00
48790;BME280;41718;51.980;5.734;2023-07-22T04:36:36;101040.72;;;12.08;100.00
48790;BME280;41718;51.980;5.734;2023-07-22T04:41:38;101036.78;;;12.45;100.00
48790;BME280;41718;51.980;5.734;2023-07-22T04:46:40;101040.47;;;12.70;100.00
48790;BME280;41718;51.980;5.734;2023-07-22T04:51:42;101034.53;;;12.82;100.00
48790;BME280;41718;51.980;5.734;2023-07-22T04:56:43;101027.66;;;12.89;100.00
48790;BME280;41718;51.980;5.734;2023-07-22T05:01:45;101044.16;;;12.98;100.00
48790;BME280;41718;51.980;5.734;2023-07-22T05:06:47;101042.56;;;13.13;100.00
48790;BME280;41718;51.980;5.734;2023-07-22T05:11:48;101051.25;;;13.16;100.00
48790;BME280;41718;51.980;5.734;2023-07-22T05:16:50;101046.94;;;13.18;100.00
48790;BME280;41718;51.980;5.734;2023-07-22T05:21:51;101044.41;;;13.24;100.00
48790;BME280;41718;51.980;5.734;2023-07-22T05:26:53;101050.53;;;13.33;100.00
48790;BME280;41718;51.980;5.734;2023-07-22T05:32:09;101050.72;;;13.63;100.00
48790;BME280;41718;51.980;5.734;2023-07-22T05:37:31;101053.44;;;13.86;100.00
48790;BME280;41718;51.980;5.734;2023-07-22T05:42:33;101061.28;;;13.95;100.00
48790;BME280;41718;51.980;5.734;2023-07-22T05:47:35;101066.50;;;14.00;100.00
48790;BME280;41718;51.980;5.734;2023-07-22T05:52:36;101072.56;;;14.00;100.00
48790;BME280;41718;51.980;5.734;2023-07-22T05:57:38;101066.53;;;14.12;100.00
48790;BME280;41718;51.980;5.734;2023-07-22T06:02:40;101065.84;;;14.57;100.00
48790;BME280;41718;51.980;5.734;2023-07-22T06:07:42;101060.66;;;14.62;100.00
48790;BME280;41718;51.980;5.734;2023-07-22T06:12:44;101066.72;;;14.56;100.00
48790;BME280;41718;51.980;5.734;2023-07-22T06:17:45;101064.16;;;14.64;100.00
48790;BME280;41718;51.980;5.734;2023-07-22T06:22:47;101074.56;;;14.66;100.00
48790;BME280;41718;51.980;5.734;2023-07-22T06:27:49;101074.56;;;14.70;100.00
48790;BME280;41718;51.980;5.734;2023-07-22T06:32:50;101078.94;;;14.87;100.00
48790;BME280;41718;51.980;5.734;2023-07-22T06:37:52;101077.19;;;14.96;100.00
48790;BME280;41718;51.980;5.734;2023-07-22T06:42:53;101073.72;;;15.11;100.00
48790;BME280;41718;51.980;5.734;2023-07-22T06:47:55;101077.19;;;15.08;100.00
48790;BME280;41718;51.980;5.734;2023-07-22T06:52:56;101090.22;;;15.54;100.00
48790;BME280;41718;51.980;5.734;2023-07-22T06:57:58;101087.59;;;15.50;100.00
48790;BME280;41718;51.980;5.734;2023-07-22T07:03:01;101093.66;;;15.58;100.00
48790;BME280;41718;51.980;5.734;2023-07-22T07:08:02;101071.09;;;15.40;100.00
48790;BME280;41718;51.980;5.734;2023-07-22T07:13:05;101074.56;;;15.54;100.00
48790;BME280;41718;51.980;5.734;2023-07-22T07:18:06;101078.81;;;15.94;100.00
48790;BME280;41718;51.980;5.734;2023-07-22T07:23:08;101080.53;;;16.07;100.00
48790;BME280;41718;51.980;5.734;2023-07-22T07:28:12;101077.81;;;16.22;100.00
48790;BME280;41718;51.980;5.734;2023-07-22T07:33:15;101081.34;;;16.23;100.00
48790;BME280;41718;51.980;5.734;2023-07-22T07:38:17;101077.81;;;16.30;100.00
48790;BME280;41718;51.980;5.734;2023-07-22T07:43:18;101068.16;;;16.42;100.00
48790;BME280;41718;51.980;5.734;2023-07-22T07:48:20;101071.47;;;16.72;100.00
48790;BME280;41718;51.980;5.734;2023-07-22T07:53:22;101072.09;;;17.06;100.00
48790;BME280;41718;51.980;5.734;2023-07-22T07:58:23;101062.97;;;17.53;100.00
48790;BME280;41718;51.980;5.734;2023-07-22T08:03:25;101051.84;;;17.30;100.00
48790;BME280;41718;51.980;5.734;2023-07-22T08:08:27;101053.38;;;17.51;100.00
48790;BME280;41718;51.980;5.734;2023-07-22T08:13:29;101057.69;;;17.56;100.00
48790;BME280;41718;51.980;5.734;2023-07-22T08:18:33;101056.16;;;17.37;100.00
48790;BME280;41718;51.980;5.734;2023-07-22T08:23:35;101053.09;;;17.81;100.00
48790;BME280;41718;51.980;5.734;2023-07-22T08:28:38;101055.75;;;17.77;100.00
48790;BME280;41718;51.980;5.734;2023-07-22T08:33:39;101068.25;;;17.48;100.00
48790;BME280;41718;51.980;5.734;2023-07-22T08:38:42;101054.06;;;17.72;100.00
48790;BME280;41718;51.980;5.734;2023-07-22T08:43:45;101060.72;;;17.99;100.00
48790;BME280;41718;51.980;5.734;2023-07-22T08:48:49;101055.47;;;17.98;100.00
48790;BME280;41718;51.980;5.734;2023-07-22T08:53:54;101061.25;;;18.24;100.00
48790;BME280;41718;51.980;5.734;2023-07-22T08:59:11;101067.72;;;17.99;100.00
48790;BME280;41718;51.980;5.734;2023-07-22T09:04:14;101065.69;;;18.21;100.00
48790;BME280;41718;51.980;5.734;2023-07-22T09:09:15;101064.72;;;18.28;100.00
48790;BME280;41718;51.980;5.734;2023-07-22T09:14:19;101062.00;;;18.34;100.00
48790;BME280;41718;51.980;5.734;2023-07-22T09:19:36;101058.72;;;18.18;100.00
48790;BME280;41718;51.980;5.734;2023-07-22T09:24:38;101060.13;;;18.42;100.00
48790;BME280;41718;51.980;5.734;2023-07-22T09:29:40;101061.44;;;18.09;100.00
48790;BME280;41718;51.980;5.734;2023-07-22T09:34:54;101049.16;;;18.77;100.00
48790;BME280;41718;51.980;5.734;2023-07-22T09:39:57;101041.69;;;19.09;100.00
48790;BME280;41718;51.980;5.734;2023-07-22T09:44:59;101046.78;;;19.18;100.00
48790;BME280;41718;51.980;5.734;2023-07-22T09:50:00;101042.00;;;18.90;100.00
48790;BME280;41718;51.980;5.734;2023-07-22T09:55:02;101039.19;;;18.99;100.00
48790;BME280;41718;51.980;5.734;2023-07-22T10:00:04;101039.91;;;19.09;100.00
48790;BME280;41718;51.980;5.734;2023-07-22T10:05:06;101048.09;;;18.91;100.00
48790;BME280;41718;51.980;5.734;2023-07-22T10:10:11;101043.28;;;19.16;100.00
48790;BME280;41718;51.980;5.734;2023-07-22T10:15:14;101045.16;;;19.09;100.00
48790;BME280;41718;51.980;5.734;2023-07-22T10:20:16;101045.47;;;19.42;100.00
48790;BME280;41718;51.980;5.734;2023-07-22T10:25:22;101050.31;;;19.15;100.00
48790;BME280;41718;51.980;5.734;2023-07-22T10:30:23;101036.25;;;19.19;100.00
48790;BME280;41718;51.980;5.734;2023-07-22T10:40:53;101038.50;;;19.41;100.00
48790;BME280;41718;51.980;5.734;2023-07-22T10:45:57;101031.31;;;19.01;100.00
48790;BME280;41718;51.980;5.734;2023-07-22T10:51:09;101034.09;;;18.92;100.00
48790;BME280;41718;51.980;5.734;2023-07-22T10:56:21;101036.06;;;18.79;100.00
48790;BME280;41718;51.980;5.734;2023-07-22T11:06:31;101031.84;;;18.66;100.00
48790;BME280;41718;51.980;5.734;2023-07-22T11:16:45;101015.88;;;18.83;100.00
48790;BME280;41718;51.980;5.734;2023-07-22T11:21:58;101017.31;;;18.45;100.00
48790;BME280;41718;51.980;5.734;2023-07-22T11:27:07;101010.50;;;18.35;100.00
48790;BME280;41718;51.980;5.734;2023-07-22T11:32:19;101006.63;;;18.59;100.00
48790;BME280;41718;51.980;5.734;2023-07-22T11:37:27;101008.88;;;18.85;100.00
48790;BME280;41718;51.980;5.734;2023-07-22T11:42:29;101005.81;;;19.09;100.00
48790;BME280;41718;51.980;5.734;2023-07-22T11:47:38;101006.19;;;18.89;100.00
48790;BME280;41718;51.980;5.734;2023-07-22T11:52:39;101002.31;;;18.56;100.00
48790;BME280;41718;51.980;5.734;2023-07-22T11:57:52;101000.38;;;19.20;100.00
48790;BME280;41718;51.980;5.734;2023-07-22T12:02:54;100988.09;;;19.68;100.00
48790;BME280;41718;51.980;5.734;2023-07-22T12:07:58;100969.63;;;19.74;100.00
48790;BME280;41718;51.980;5.734;2023-07-22T12:13:01;100965.09;;;19.81;100.00
48790;BME280;41718;51.980;5.734;2023-07-22T12:18:03;100985.09;;;19.42;100.00
48790;BME280;41718;51.980;5.734;2023-07-22T12:23:05;100984.91;;;19.06;100.00
48790;BME280;41718;51.980;5.734;2023-07-22T12:28:07;101010.22;;;18.53;100.00
48790;BME280;41718;51.980;5.734;2023-07-22T12:33:11;101042.28;;;17.30;100.00
48790;BME280;41718;51.980;5.734;2023-07-22T12:38:16;101030.56;;;16.69;100.00
48790;BME280;41718;51.980;5.734;2023-07-22T12:43:18;101035.91;;;16.48;100.00
48790;BME280;41718;51.980;5.734;2023-07-22T12:48:21;101020.16;;;16.59;100.00
48790;BME280;41718;51.980;5.734;2023-07-22T12:53:24;101014.88;;;16.74;100.00
48790;BME280;41718;51.980;5.734;2023-07-22T12:58:26;101002.31;;;17.16;100.00
48790;BME280;41718;51.980;5.734;2023-07-22T13:03:27;100997.06;;;17.19;100.00
48790;BME280;41718;51.980;5.734;2023-07-22T13:08:29;100983.22;;;17.86;100.00
48790;BME280;41718;51.980;5.734;2023-07-22T13:13:33;100981.94;;;18.16;100.00
48790;BME280;41718;51.980;5.734;2023-07-22T13:18:34;100983.41;;;18.36;100.00
48790;BME280;41718;51.980;5.734;2023-07-22T13:23:36;100974.75;;;18.86;100.00
48790;BME280;41718;51.980;5.734;2023-07-22T13:28:37;100978.75;;;19.07;100.00
48790;BME280;41718;51.980;5.734;2023-07-22T13:33:39;100971.09;;;18.96;100.00
48790;BME280;41718;51.980;5.734;2023-07-22T13:38:44;100974.25;;;18.63;100.00
48790;BME280;41718;51.980;5.734;2023-07-22T13:43:45;100973.16;;;18.19;100.00
48790;BME280;41718;51.980;5.734;2023-07-22T13:48:48;100976.69;;;18.18;100.00
48790;BME280;41718;51.980;5.734;2023-07-22T13:53:49;100974.16;;;18.12;100.00
48790;BME280;41718;51.980;5.734;2023-07-22T13:58:56;100970.50;;;18.20;100.00
48790;BME280;41718;51.980;5.734;2023-07-22T14:03:57;100979.31;;;18.15;100.00
48790;BME280;41718;51.980;5.734;2023-07-22T14:08:59;100973.69;;;17.81;100.00
48790;BME280;41718;51.980;5.734;2023-07-22T14:14:00;100987.03;;;17.59;100.00
48790;BME280;41718;51.980;5.734;2023-07-22T14:19:02;100974.06;;;17.48;100.00
48790;BME280;41718;51.980;5.734;2023-07-22T14:24:04;100970.50;;;17.53;100.00
48790;BME280;41718;51.980;5.734;2023-07-22T14:29:06;100965.91;;;17.76;100.00
48790;BME280;41718;51.980;5.734;2023-07-22T14:34:08;100965.16;;;17.62;100.00
48790;BME280;41718;51.980;5.734;2023-07-22T14:39:10;100955.13;;;17.97;100.00
48790;BME280;41718;51.980;5.734;2023-07-22T14:44:11;100953.94;;;18.20;100.00
48790;BME280;41718;51.980;5.734;2023-07-22T14:49:13;100948.50;;;18.34;100.00
48790;BME280;41718;51.980;5.734;2023-07-22T14:54:14;100945.03;;;18.33;100.00
48790;BME280;41718;51.980;5.734;2023-07-22T14:59:16;100948.75;;;18.74;100.00
48790;BME280;41718;51.980;5.734;2023-07-22T15:04:18;100951.53;;;18.63;100.00
48790;BME280;41718;51.980;5.734;2023-07-22T15:09:19;100941.13;;;18.57;100.00
48790;BME280;41718;51.980;5.734;2023-07-22T15:14:22;100941.91;;;18.64;100.00
48790;BME280;41718;51.980;5.734;2023-07-22T15:19:23;100943.63;;;18.66;100.00
48790;BME280;41718;51.980;5.734;2023-07-22T15:24:25;100943.66;;;18.63;100.00
48790;BME280;41718;51.980;5.734;2023-07-22T15:29:26;100945.91;;;18.31;100.00
48790;BME280;41718;51.980;5.734;2023-07-22T15:34:28;100946.03;;;18.24;100.00
48790;BME280;41718;51.980;5.734;2023-07-22T15:39:29;100949.06;;;17.95;100.00
48790;BME280;41718;51.980;5.734;2023-07-22T15:44:31;100940.22;;;18.02;100.00
48790;BME280;41718;51.980;5.734;2023-07-22T15:49:32;100938.34;;;18.12;100.00
48790;BME280;41718;51.980;5.734;2023-07-22T15:54:34;100932.09;;;18.22;100.00
48790;BME280;41718;51.980;5.734;2023-07-22T15:59:35;100921.94;;;18.01;100.00
48790;BME280;41718;51.980;5.734;2023-07-22T16:04:37;100916.47;;;18.16;100.00
48790;BME280;41718;51.980;5.734;2023-07-22T16:09:39;100922.56;;;18.17;100.00
48790;BME280;41718;51.980;5.734;2023-07-22T16:14:40;100919.81;;;18.24;100.00
48790;BME280;41718;51.980;5.734;2023-07-22T16:19:42;100910.53;;;18.05;100.00
48790;BME280;41718;51.980;5.734;2023-07-22T16:24:43;100913.91;;;18.12;100.00
48790;BME280;41718;51.980;5.734;2023-07-22T16:29:45;100910.31;;;18.19;100.00
48790;BME280;41718;51.980;5.734;2023-07-22T16:34:46;100900.66;;;18.22;100.00
48790;BME280;41718;51.980;5.734;2023-07-22T16:39:48;100893.47;;;18.35;100.00
48790;BME280;41718;51.980;5.734;2023-07-22T16:44:50;100895.13;;;18.41;100.00
48790;BME280;41718;51.980;5.734;2023-07-22T16:49:52;100893.75;;;18.17;100.00
48790;BME280;41718;51.980;5.734;2023-07-22T16:54:53;100893.88;;;18.11;100.00
48790;BME280;41718;51.980;5.734;2023-07-22T16:59:55;100893.00;;;18.10;100.00
48790;BME280;41718;51.980;5.734;2023-07-22T17:04:57;100883.69;;;17.91;100.00
48790;BME280;41718;51.980;5.734;2023-07-22T17:09:58;100880.00;;;18.04;100.00
48790;BME280;41718;51.980;5.734;2023-07-22T17:15:00;100883.50;;;18.03;100.00
48790;BME280;41718;51.980;5.734;2023-07-22T17:20:01;100875.31;;;18.24;100.00
48790;BME280;41718;51.980;5.734;2023-07-22T17:25:03;100865.19;;;18.01;100.00
48790;BME280;41718;51.980;5.734;2023-07-22T17:30:05;100866.81;;;18.09;100.00
48790;BME280;41718;51.980;5.734;2023-07-22T17:35:07;100854.69;;;18.03;100.00
48790;BME280;41718;51.980;5.734;2023-07-22T17:40:09;100846.03;;;17.99;100.00
48790;BME280;41718;51.980;5.734;2023-07-22T17:45:11;100852.06;;;18.03;100.00
48790;BME280;41718;51.980;5.734;2023-07-22T17:50:13;100838.28;;;17.92;100.00
48790;BME280;41718;51.980;5.734;2023-07-22T17:55:15;100838.28;;;17.92;100.00
48790;BME280;41718;51.980;5.734;2023-07-22T18:00:18;100832.38;;;17.79;100.00
48790;BME280;41718;51.980;5.734;2023-07-22T18:05:19;100836.84;;;17.72;100.00
48790;BME280;41718;51.980;5.734;2023-07-22T18:10:23;100835.13;;;17.70;100.00
48790;BME280;41718;51.980;5.734;2023-07-22T18:15:24;100838.16;;;17.38;100.00
48790;BME280;41718;51.980;5.734;2023-07-22T18:20:26;100830.47;;;17.27;100.00
48790;BME280;41718;51.980;5.734;2023-07-22T18:25:28;100831.88;;;16.82;100.00
48790;BME280;41718;51.980;5.734;2023-07-22T18:30:29;100829.38;;;16.71;100.00
48790;BME280;41718;51.980;5.734;2023-07-22T18:35:31;100834.66;;;16.62;100.00
48790;BME280;41718;51.980;5.734;2023-07-22T18:40:32;100834.94;;;16.36;100.00
48790;BME280;41718;51.980;5.734;2023-07-22T18:45:35;100824.56;;;16.28;100.00
48790;BME280;41718;51.980;5.734;2023-07-22T18:50:38;100801.88;;;16.35;100.00
48790;BME280;41718;51.980;5.734;2023-07-22T18:55:41;100801.94;;;16.26;100.00
48790;BME280;41718;51.980;5.734;2023-07-22T19:00:44;100812.47;;;16.18;100.00
48790;BME280;41718;51.980;5.734;2023-07-22T19:05:50;100818.59;;;16.12;100.00
48790;BME280;41718;51.980;5.734;2023-07-22T19:10:52;100820.41;;;16.03;100.00
48790;BME280;41718;51.980;5.734;2023-07-22T19:15:54;100815.38;;;15.83;100.00
48790;BME280;41718;51.980;5.734;2023-07-22T19:20:58;100818.00;;;15.75;100.00
48790;BME280;41718;51.980;5.734;2023-07-22T19:26:04;100818.97;;;15.57;100.00
48790;BME280;41718;51.980;5.734;2023-07-22T19:31:13;100830.34;;;15.49;100.00
48790;BME280;41718;51.980;5.734;2023-07-22T19:36:14;100807.81;;;15.29;100.00
48790;BME280;41718;51.980;5.734;2023-07-22T19:41:17;100819.19;;;15.21;100.00
48790;BME280;41718;51.980;5.734;2023-07-22T19:46:19;100815.75;;;15.05;100.00
48790;BME280;41718;51.980;5.734;2023-07-22T19:51:21;100808.88;;;14.84;100.00
48790;BME280;41718;51.980;5.734;2023-07-22T19:56:26;100798.47;;;14.84;100.00
48790;BME280;41718;51.980;5.734;2023-07-22T20:01:28;100797.66;;;14.71;100.00
48790;BME280;41718;51.980;5.734;2023-07-22T20:06:31;100785.47;;;14.73;100.00
48790;BME280;41718;51.980;5.734;2023-07-22T20:11:36;100784.66;;;14.54;100.00
48790;BME280;41718;51.980;5.734;2023-07-22T20:16:40;100779.44;;;14.67;100.00
48790;BME280;41718;51.980;5.734;2023-07-22T20:21:48;100784.63;;;14.68;100.00
48790;BME280;41718;51.980;5.734;2023-07-22T20:26:55;100782.03;;;14.57;100.00
48790;BME280;41718;51.980;5.734;2023-07-22T20:32:04;100776.00;;;14.51;100.00
48790;BME280;41718;51.980;5.734;2023-07-22T20:37:21;100769.91;;;14.50;100.00
48790;BME280;41718;51.980;5.734;2023-07-22T20:42:34;100761.25;;;14.53;100.00
48790;BME280;41718;51.980;5.734;2023-07-22T20:47:40;100762.13;;;14.47;100.00
48790;BME280;41718;51.980;5.734;2023-07-22T20:52:46;100743.84;;;14.46;100.00
48790;BME280;41718;51.980;5.734;2023-07-22T20:58:04;100741.28;;;14.38;100.00
48790;BME280;41718;51.980;5.734;2023-07-22T21:03:06;100718.75;;;14.37;100.00
48790;BME280;41718;51.980;5.734;2023-07-22T21:08:08;100724.78;;;14.45;100.00
48790;BME280;41718;51.980;5.734;2023-07-22T21:13:12;100726.53;;;14.34;100.00
48790;BME280;41718;51.980;5.734;2023-07-22T21:18:16;100713.50;;;14.40;100.00
48790;BME280;41718;51.980;5.734;2023-07-22T21:23:18;100702.22;;;14.46;100.00
48790;BME280;41718;51.980;5.734;2023-07-22T21:28:21;100713.50;;;14.45;100.00
48790;BME280;41718;51.980;5.734;2023-07-22T21:33:22;100695.28;;;14.40;100.00
48790;BME280;41718;51.980;5.734;2023-07-22T21:38:27;100682.28;;;14.42;100.00
48790;BME280;41718;51.980;5.734;2023-07-22T21:43:29;100679.66;;;14.40;100.00
48790;BME280;41718;51.980;5.734;2023-07-22T21:48:33;100681.47;;;14.24;100.00
48790;BME280;41718;51.980;5.734;2023-07-22T21:53:35;100674.50;;;14.31;100.00
48790;BME280;41718;51.980;5.734;2023-07-22T21:58:36;100669.31;;;14.29;100.00
48790;BME280;41718;51.980;5.734;2023-07-22T22:03:38;100662.34;;;14.36;100.00
48790;BME280;41718;51.980;5.734;2023-07-22T22:08:41;100658.88;;;14.36;100.00
48790;BME280;41718;51.980;5.734;2023-07-22T22:13:43;100647.59;;;14.29;100.00
48790;BME280;41718;51.980;5.734;2023-07-22T22:18:47;100655.47;;;14.18;100.00
48790;BME280;41718;51.980;5.734;2023-07-22T22:23:55;100639.78;;;14.37;100.00
48790;BME280;41718;51.980;5.734;2023-07-22T22:28:59;100634.63;;;14.21;100.00
48790;BME280;41718;51.980;5.734;2023-07-22T22:34:04;100626.78;;;14.32;100.00
48790;BME280;41718;51.980;5.734;2023-07-22T22:39:09;100623.34;;;14.27;100.00
48790;BME280;41718;51.980;5.734;2023-07-22T22:44:11;100617.22;;;14.39;100.00
48790;BME280;41718;51.980;5.734;2023-07-22T22:49:17;100606.78;;;14.40;100.00
48790;BME280;41718;51.980;5.734;2023-07-22T22:54:19;100591.22;;;14.37;100.00
48790;BME280;41718;51.980;5.734;2023-07-22T22:59:21;100561.72;;;14.29;100.00
48790;BME280;41718;51.980;5.734;2023-07-22T23:04:22;100600.78;;;14.30;100.00
48790;BME280;41718;51.980;5.734;2023-07-22T23:09:24;100602.50;;;14.33;100.00
48790;BME280;41718;51.980;5.734;2023-07-22T23:14:28;100592.09;;;14.36;100.00
48790;BME280;41718;51.980;5.734;2023-07-22T23:19:33;100574.75;;;14.35;100.00
48790;BME280;41718;51.980;5.734;2023-07-22T23:24:34;100573.84;;;14.42;100.00
48790;BME280;41718;51.980;5.734;2023-07-22T23:29:37;100572.09;;;14.40;100.00
48790;BME280;41718;51.980;5.734;2023-07-22T23:34:39;100567.78;;;14.34;100.00
48790;BME280;41718;51.980;5.734;2023-07-22T23:39:41;100562.56;;;14.39;100.00
48790;BME280;41718;51.980;5.734;2023-07-22T23:44:42;100552.19;;;14.32;100.00
48790;BME280;41718;51.980;5.734;2023-07-22T23:49:45;100538.34;;;14.27;100.00
48790;BME280;41718;51.980;5.734;2023-07-22T23:54:46;100519.25;;;14.30;100.00
48790;BME280;41718;51.980;5.734;2023-07-22T23:59:48;100522.69;;;14.32;100.00
